This is the latest recevied weather packets stored in our database for station/object KM4RT-13. If no packets are shown the sender has not sent any weather packets the latest 10 day(s).
| Time | Temp. | Humidity | Pressure | Rain* | Wind** | Luminosity | Snow |
|---|---|---|---|---|---|---|---|
| 1777738100 | 18.33° C | 40% | 1015.9 hPa | 0 mm | - | 701 W/m² | - |
| 1777737798 | 18.33° C | 44% | 1016.2 hPa | 0 mm | - | 701 W/m² | - |
| 1777737497 | 18.33° C | 43% | 1016.1 hPa | 0 mm | - | 693 W/m² | - |
| 1777737194 | 18.33° C | 43% | 1016.1 hPa | 0 mm | - | 676 W/m² | - |
| 1777736890 | 18.33° C | 46% | 1016.2 hPa | 0 mm | - | 667 W/m² | - |
| 1777736282 | 18.33° C | 45% | 1016.2 hPa | 0 mm | - | 649 W/m² | - |
| 1777735978 | 17.78° C | 43% | 1016.3 hPa | 0 mm | - | 642 W/m² | - |
| 1777735676 | 17.78° C | 45% | 1016.2 hPa | 0 mm | - | 630 W/m² | - |
| 1777735373 | 17.78° C | 47% | 1016.2 hPa | 0 mm | - | 619 W/m² | - |
| 1777735071 | 17.22° C | 51% | 1016.2 hPa | 0 mm | - | 608 W/m² | - |
| 1777734767 | 17.22° C | 53% | 1016.1 hPa | 0 mm | - | 596 W/m² | - |
| 1777734466 | 17.22° C | 52% | 1016.1 hPa | 0 mm | - | 584 W/m² | - |
| 1777734162 | 16.67° C | 50% | 1016.1 hPa | 0 mm | - | 570 W/m² | - |
| 1777733858 | 16.67° C | 47% | 1016.2 hPa | 0 mm | - | 555 W/m² | - |
| 1777733555 | 16.11° C | 54% | 1016.1 hPa | 0 mm | - | 543 W/m² | - |
| 1777733251 | 16.11° C | 56% | 1016.1 hPa | 0 mm | - | 530 W/m² | - |
| 1777732948 | 16.11° C | 61% | 1016.1 hPa | 0 mm | - | 517 W/m² | - |
| 1777732644 | 16.11° C | 59% | 1016.1 hPa | 0 mm | - | 501 W/m² | - |
| 1777732342 | 15.56° C | 56% | 1016.1 hPa | 0 mm | - | 487 W/m² | - |
| 1777732039 | 15.56° C | 62% | 1015.8 hPa | 0 mm | - | 472 W/m² | - |
| 1777731736 | 15.56° C | 61% | 1015.8 hPa | 0 mm | - | 456 W/m² | - |
| 1777731433 | 15.56° C | 65% | 1016 hPa | 0 mm | - | 441 W/m² | - |
| 1777731131 | 15° C | 65% | 1016 hPa | 0 mm | - | 426 W/m² | - |
| 1777730526 | 14.44° C | 67% | 1015.8 hPa | 0 mm | - | 394 W/m² | - |
| 1777730221 | 14.44° C | 68% | 1015.8 hPa | 0 mm | - | 380 W/m² | - |
* Rain latest hour (hover to see other rain measurements)
** Current wind speed in m/s (hover to see current wind gust speed)